createdAt,value
2022-09-20T00:00:48.042Z,77.31
2022-09-20T00:03:15.574Z,75.96
2022-09-20T00:05:43.283Z,77.45
2022-09-20T00:08:12.511Z,77.21
2022-09-20T00:10:39.340Z,77.17
2022-09-20T00:13:06.836Z,78.45
2022-09-20T00:15:33.263Z,78.23
2022-09-20T00:18:00.212Z,77.21
2022-09-20T00:20:26.551Z,77.56
2022-09-20T00:22:52.824Z,77.53
2022-09-20T00:25:19.882Z,77.24
2022-09-20T00:27:46.327Z,76.84
2022-09-20T00:30:13.586Z,76.22
2022-09-20T00:32:40.617Z,75.44
2022-09-20T00:35:07.676Z,75.55
2022-09-20T00:37:34.803Z,74.45
2022-09-20T00:40:01.825Z,74.78
2022-09-20T00:42:29.566Z,74.47
2022-09-20T00:44:55.945Z,74.34
2022-09-20T00:47:25.040Z,74.10
2022-09-20T00:49:53.079Z,74.14
2022-09-20T00:52:20.466Z,74.74
2022-09-20T00:54:47.169Z,74.18
2022-09-20T00:57:13.597Z,74.15
2022-09-20T00:59:41.725Z,73.65
2022-09-20T01:02:08.072Z,73.64
2022-09-20T01:04:35.953Z,73.96
2022-09-20T01:07:03.859Z,74.39
2022-09-20T01:09:30.166Z,74.21
2022-09-20T01:11:57.674Z,75.76
2022-09-20T01:14:26.100Z,75.17
2022-09-20T01:16:54.669Z,75.87
2022-09-20T01:19:39.503Z,76.50
2022-09-20T01:22:11.149Z,76.33
2022-09-20T01:24:41.570Z,76.82
2022-09-20T01:27:14.432Z,76.37
2022-09-20T01:29:43.831Z,77.18
2022-09-20T01:32:14.931Z,77.49
2022-09-20T01:34:45.475Z,76.92
2022-09-20T01:37:14.889Z,77.99
2022-09-20T01:39:52.012Z,77.11
2022-09-20T01:42:18.423Z,77.38
2022-09-20T01:45:02.190Z,77.67
2022-09-20T01:47:47.333Z,77.15
2022-09-20T01:50:13.617Z,79.00
2022-09-20T01:52:55.355Z,79.00
2022-09-20T01:55:21.692Z,78.69
2022-09-20T01:58:10.265Z,78.45
2022-09-20T02:01:06.216Z,78.17
2022-09-20T02:03:44.426Z,79.25
2022-09-20T02:06:13.731Z,79.14
2022-09-20T02:08:58.982Z,78.78
2022-09-20T02:11:48.531Z,78.18
2022-09-20T02:14:28.692Z,79.02
2022-09-20T02:17:02.857Z,78.79
2022-09-20T02:19:38.165Z,78.39
2022-09-20T02:22:18.002Z,78.53
2022-09-20T02:24:50.745Z,78.92
2022-09-20T02:27:17.013Z,78.55
2022-09-20T02:29:52.490Z,79.17
2022-09-20T02:32:37.034Z,79.11
2022-09-20T02:35:27.561Z,77.42
2022-09-20T02:38:05.712Z,76.93
2022-09-20T02:40:35.122Z,76.62
2022-09-20T02:43:07.492Z,76.73
2022-09-20T02:45:47.917Z,75.52
2022-09-20T02:48:16.665Z,76.08
2022-09-20T02:51:18.483Z,76.06
2022-09-20T02:53:54.997Z,75.96
2022-09-20T02:56:33.356Z,75.33
2022-09-20T02:59:18.138Z,75.24
2022-09-20T03:02:01.033Z,74.94
2022-09-20T03:04:39.563Z,74.94
2022-09-20T03:07:24.761Z,74.93
2022-09-20T03:10:01.495Z,75.54
2022-09-20T03:12:27.767Z,75.19
2022-09-20T03:14:54.045Z,74.48
2022-09-20T03:17:46.384Z,75.57
2022-09-20T03:20:30.192Z,76.29
2022-09-20T03:23:15.522Z,76.60
2022-09-20T03:25:48.173Z,76.42
2022-09-20T03:28:20.263Z,76.62
2022-09-20T03:30:56.132Z,77.64
2022-09-20T03:33:29.596Z,77.33
2022-09-20T03:36:13.981Z,76.64
2022-09-20T03:38:52.514Z,78.06
2022-09-20T03:41:18.819Z,76.78
2022-09-20T03:43:45.103Z,77.35
2022-09-20T03:46:18.515Z,77.98
2022-09-20T03:48:44.963Z,77.39
2022-09-20T03:51:33.103Z,77.24
2022-09-20T03:54:20.550Z,77.81
2022-09-20T03:56:49.959Z,77.68
2022-09-20T03:59:31.736Z,77.63
2022-09-20T04:01:58.206Z,78.72
2022-09-20T04:04:30.405Z,79.65
2022-09-20T04:07:10.891Z,78.34
2022-09-20T04:09:56.292Z,78.74
2022-09-20T04:12:27.763Z,77.93
2022-09-20T04:15:09.853Z,78.63
2022-09-20T04:17:43.105Z,77.37
2022-09-20T04:20:21.550Z,78.95
2022-09-20T04:22:51.962Z,78.38
2022-09-20T04:25:21.479Z,78.87
2022-09-20T04:27:52.807Z,79.87
2022-09-20T04:30:27.685Z,78.84
2022-09-20T04:33:00.956Z,78.32
2022-09-20T04:36:04.522Z,78.51
2022-09-20T04:38:31.172Z,79.13
2022-09-20T04:40:57.448Z,78.26
2022-09-20T04:43:44.385Z,78.06
2022-09-20T04:46:13.501Z,77.67
2022-09-20T04:48:58.097Z,76.97
2022-09-20T04:51:43.224Z,76.14
2022-09-20T04:54:21.697Z,76.51
2022-09-20T04:56:57.820Z,76.76
2022-09-20T04:59:58.148Z,76.39
2022-09-20T05:02:42.546Z,75.66
2022-09-20T05:05:27.384Z,75.84
2022-09-20T05:07:56.812Z,76.41
2022-09-20T05:10:29.259Z,76.83
2022-09-20T05:13:15.871Z,75.91
2022-09-20T05:15:49.637Z,76.63
2022-09-20T05:18:25.016Z,76.81
2022-09-20T05:21:01.454Z,77.30
2022-09-20T05:24:03.333Z,77.60
2022-09-20T05:26:38.813Z,76.76
2022-09-20T05:29:14.907Z,78.01
2022-09-20T05:31:52.077Z,77.40
2022-09-20T05:34:30.309Z,77.98
2022-09-20T05:37:20.477Z,78.37
2022-09-20T05:39:53.790Z,77.80
2022-09-20T05:42:39.165Z,78.28
2022-09-20T05:45:23.667Z,77.35
2022-09-20T05:47:55.107Z,77.99
2022-09-20T05:50:32.172Z,77.26
2022-09-20T05:53:18.696Z,77.04
2022-09-20T05:56:04.173Z,77.63
2022-09-20T05:58:33.869Z,77.61
2022-09-20T06:01:17.564Z,77.91
2022-09-20T06:03:59.193Z,78.30
2022-09-20T06:06:28.063Z,78.39
2022-09-20T06:09:17.143Z,77.11
2022-09-20T06:11:46.892Z,77.60
2022-09-20T06:14:27.509Z,80.11
2022-09-20T06:16:59.261Z,78.06
2022-09-20T06:19:32.917Z,78.35
2022-09-20T06:22:03.890Z,78.60
2022-09-20T06:24:42.980Z,79.21
2022-09-20T06:27:29.511Z,79.93
2022-09-20T06:29:59.718Z,79.80
2022-09-20T06:32:27.124Z,80.11
2022-09-20T06:34:54.094Z,80.01
2022-09-20T06:37:57.278Z,78.70
2022-09-20T06:41:00.800Z,79.79
2022-09-20T06:43:27.829Z,80.77
2022-09-20T06:45:54.161Z,79.57
2022-09-20T06:48:20.502Z,79.75
2022-09-20T06:50:46.888Z,79.87
2022-09-20T06:53:16.425Z,79.40
2022-09-20T06:55:44.755Z,80.04
2022-09-20T06:58:11.421Z,79.30
2022-09-20T07:00:39.649Z,79.53
2022-09-20T07:03:06.139Z,80.00
2022-09-20T07:05:32.629Z,78.40
2022-09-20T07:07:59.208Z,78.58
2022-09-20T07:10:28.044Z,78.93
2022-09-20T07:13:01.755Z,77.65
2022-09-20T07:15:28.699Z,78.60
2022-09-20T07:17:55.558Z,78.14
2022-09-20T07:20:22.073Z,78.40
2022-09-20T07:22:48.852Z,77.83
2022-09-20T07:25:15.174Z,78.20
2022-09-20T07:27:41.563Z,78.36
2022-09-20T07:30:08.761Z,79.24
2022-09-20T07:32:35.039Z,78.63
2022-09-20T07:35:01.946Z,79.33
2022-09-20T07:37:28.271Z,79.41
2022-09-20T07:39:55.079Z,78.87
2022-09-20T07:42:21.539Z,79.80
2022-09-20T07:44:48.851Z,79.85
2022-09-20T07:47:15.428Z,79.98
2022-09-20T07:49:41.739Z,80.35
2022-09-20T07:52:10.241Z,79.70
2022-09-20T07:54:36.732Z,79.71
2022-09-20T07:57:03.656Z,79.08
2022-09-20T07:59:29.939Z,79.60
2022-09-20T08:01:57.783Z,79.80
2022-09-20T08:04:24.148Z,80.00
2022-09-20T08:06:50.430Z,80.52
2022-09-20T08:09:16.900Z,80.30
2022-09-20T08:11:43.724Z,80.07
2022-09-20T08:14:12.920Z,80.18
2022-09-20T08:16:40.610Z,79.68
2022-09-20T08:19:07.356Z,79.38
2022-09-20T08:21:34.757Z,79.38
2022-09-20T08:24:01.217Z,79.28
2022-09-20T08:26:29.115Z,79.85
2022-09-20T08:28:56.970Z,79.45
2022-09-20T08:31:24.713Z,78.61
2022-09-20T08:33:51.945Z,79.39
2022-09-20T08:36:22.483Z,79.78
2022-09-20T08:41:39.136Z,78.46
2022-09-20T08:44:07.606Z,77.66
2022-09-20T08:46:35.662Z,78.76
2022-09-20T08:49:04.133Z,77.69
2022-09-20T08:51:33.281Z,76.93
2022-09-20T08:53:59.895Z,77.94
2022-09-20T08:56:31.382Z,78.13
2022-09-20T08:58:59.350Z,78.85
2022-09-20T09:01:27.106Z,78.33
2022-09-20T09:03:58.739Z,77.43
2022-09-20T09:06:25.240Z,77.33
2022-09-20T09:08:53.348Z,76.39
2022-09-20T09:11:21.041Z,78.13
2022-09-20T09:13:54.378Z,77.11
2022-09-20T09:16:24.658Z,77.13
2022-09-20T09:18:55.097Z,76.24
2022-09-20T09:21:23.236Z,77.77
2022-09-20T09:23:52.137Z,77.99
2022-09-20T09:26:22.675Z,76.88
2022-09-20T09:29:21.415Z,76.58
2022-09-20T09:31:49.321Z,78.36
2022-09-20T09:34:25.275Z,77.86
2022-09-20T09:36:51.939Z,76.16
2022-09-20T09:39:31.608Z,77.51
2022-09-20T09:42:01.377Z,75.82
2022-09-20T09:44:35.489Z,77.14
2022-09-20T09:47:02.127Z,77.34
2022-09-20T09:49:35.833Z,76.63
2022-09-20T09:52:06.841Z,77.10
2022-09-20T09:54:38.450Z,79.17
2022-09-20T09:57:20.547Z,77.32
2022-09-20T10:00:14.793Z,78.48
2022-09-20T10:02:49.834Z,78.84
2022-09-20T10:05:31.519Z,78.33
2022-09-20T10:08:06.085Z,77.83
2022-09-20T10:10:41.461Z,77.49
2022-09-20T10:13:18.323Z,76.35
2022-09-20T10:16:04.949Z,77.02
2022-09-20T10:18:46.215Z,76.52
2022-09-20T10:21:18.311Z,76.98
2022-09-20T10:24:03.088Z,75.21
2022-09-20T10:26:30.169Z,75.88
2022-09-20T10:29:03.186Z,74.76
2022-09-20T10:31:56.113Z,74.59
2022-09-20T10:34:22.533Z,74.86
2022-09-20T10:36:48.797Z,75.10
2022-09-20T10:39:34.481Z,75.06
2022-09-20T10:42:38.183Z,74.65
2022-09-20T10:45:10.513Z,73.94
2022-09-20T10:47:56.666Z,74.92
2022-09-20T10:50:43.000Z,76.30
2022-09-20T10:53:12.374Z,74.95
2022-09-20T10:55:59.242Z,76.42
2022-09-20T10:58:45.234Z,74.92
2022-09-20T11:01:31.827Z,76.68
2022-09-20T11:04:09.644Z,77.22
2022-09-20T11:06:37.527Z,77.57
2022-09-20T11:09:05.515Z,79.09
2022-09-20T11:11:35.728Z,78.72
2022-09-20T11:14:05.198Z,79.89
2022-09-20T11:16:34.601Z,78.61
2022-09-20T11:19:00.962Z,80.35
2022-09-20T11:22:02.858Z,78.54
2022-09-20T11:24:31.780Z,78.46
2022-09-20T11:27:04.808Z,80.06
2022-09-20T11:29:32.272Z,78.53
2022-09-20T11:32:06.320Z,79.55
2022-09-20T11:34:55.398Z,75.48
2022-09-20T11:37:23.028Z,73.56
2022-09-20T11:39:53.537Z,72.83
2022-09-20T11:42:21.881Z,71.41
2022-09-20T11:44:48.450Z,72.04
2022-09-20T11:47:43.246Z,71.61
2022-09-20T11:50:12.777Z,72.30
2022-09-20T11:52:58.010Z,72.60
2022-09-20T11:55:33.463Z,72.88
2022-09-20T11:58:01.488Z,73.27
2022-09-20T12:00:34.525Z,73.20
2022-09-20T12:03:03.324Z,72.19
2022-09-20T12:05:35.752Z,72.51
2022-09-20T12:08:04.259Z,72.97
2022-09-20T12:10:36.320Z,71.78
2022-09-20T12:13:05.591Z,72.46
2022-09-20T12:15:36.463Z,72.81
2022-09-20T12:18:09.052Z,73.89
2022-09-20T12:20:35.867Z,72.91
2022-09-20T12:23:21.526Z,72.50
2022-09-20T12:26:00.709Z,73.75
2022-09-20T12:28:34.315Z,72.72
2022-09-20T12:31:19.008Z,73.43
2022-09-20T12:33:54.178Z,71.01
2022-09-20T12:36:20.673Z,71.13
2022-09-20T12:38:48.557Z,71.46
2022-09-20T12:41:27.896Z,70.23
2022-09-20T12:43:57.321Z,71.05
2022-09-20T12:46:31.470Z,71.05
2022-09-20T12:49:32.584Z,70.80
2022-09-20T12:52:17.721Z,73.28
2022-09-20T12:54:52.215Z,70.96
2022-09-20T12:57:27.440Z,71.95
2022-09-20T12:59:59.012Z,71.56
2022-09-20T13:03:03.898Z,71.56
2022-09-20T13:05:38.273Z,71.96
2022-09-20T13:08:43.384Z,72.96
2022-09-20T13:11:18.368Z,73.37
2022-09-20T13:14:04.101Z,73.57
2022-09-20T13:16:36.304Z,72.62
2022-09-20T13:19:05.485Z,74.05
2022-09-20T13:21:33.467Z,72.23
2022-09-20T13:24:01.341Z,72.76
2022-09-20T13:26:30.268Z,72.14
2022-09-20T13:28:59.135Z,71.48
2022-09-20T13:31:30.123Z,71.57
2022-09-20T13:34:12.377Z,71.49
2022-09-20T13:36:38.849Z,71.65
2022-09-20T13:39:06.328Z,70.81
2022-09-20T13:41:33.314Z,71.07
2022-09-20T13:44:00.914Z,71.63
2022-09-20T13:46:33.340Z,70.56
2022-09-20T13:49:08.835Z,70.67
2022-09-20T13:51:35.371Z,69.89
2022-09-20T13:54:18.544Z,70.58
2022-09-20T13:56:45.052Z,71.40
2022-09-20T13:59:19.189Z,71.47
2022-09-20T14:01:50.699Z,72.72
2022-09-20T14:04:18.422Z,70.18
2022-09-20T14:06:45.098Z,70.46
2022-09-20T14:09:20.095Z,71.80
2022-09-20T14:11:46.785Z,70.48
2022-09-20T14:14:16.447Z,70.43
2022-09-20T14:16:46.744Z,69.48
2022-09-20T14:19:15.653Z,68.84
2022-09-20T14:21:43.603Z,68.43
2022-09-20T14:24:16.620Z,68.44
2022-09-20T14:26:43.670Z,67.67
2022-09-20T14:29:29.533Z,68.19
2022-09-20T14:31:56.799Z,69.12
2022-09-20T14:34:23.666Z,71.39
2022-09-20T14:36:50.724Z,69.51
2022-09-20T14:39:19.008Z,71.19
2022-09-20T14:41:46.486Z,69.15
2022-09-20T14:44:26.389Z,69.11
2022-09-20T14:46:54.262Z,69.72
2022-09-20T14:49:20.674Z,68.99
2022-09-20T14:51:48.041Z,69.77
2022-09-20T14:54:15.171Z,71.18
2022-09-20T14:56:44.282Z,69.55
2022-09-20T14:59:20.030Z,69.18
2022-09-20T15:02:04.985Z,68.41
2022-09-20T15:04:32.794Z,68.94
2022-09-20T15:07:03.341Z,69.61
2022-09-20T15:09:29.941Z,68.33
2022-09-20T15:12:00.352Z,68.04
2022-09-20T15:14:26.637Z,69.10
2022-09-20T15:16:53.010Z,70.28
2022-09-20T15:19:19.380Z,68.85
2022-09-20T15:21:45.675Z,70.96
2022-09-20T15:24:12.019Z,69.67
2022-09-20T15:26:38.783Z,69.43
2022-09-20T15:29:06.029Z,71.43
2022-09-20T15:31:32.378Z,73.34
2022-09-20T15:33:58.756Z,74.13
2022-09-20T15:36:31.677Z,74.13
2022-09-20T15:38:58.311Z,73.30
2022-09-20T15:41:30.509Z,72.72
2022-09-20T15:43:57.826Z,72.95
2022-09-20T15:46:26.959Z,72.23
2022-09-20T15:48:53.951Z,72.78
2022-09-20T15:51:20.266Z,70.98
2022-09-20T15:54:00.499Z,71.22
2022-09-20T15:56:31.104Z,72.09
2022-09-20T15:59:01.589Z,71.48
2022-09-20T16:01:29.140Z,71.20
2022-09-20T16:03:55.929Z,69.71
2022-09-20T16:06:23.168Z,69.71
2022-09-20T16:08:49.576Z,68.88
2022-09-20T16:11:22.274Z,70.89
2022-09-20T16:13:58.816Z,69.92
2022-09-20T16:16:26.260Z,69.32
2022-09-20T16:19:11.799Z,69.53
2022-09-20T16:21:42.069Z,71.04
2022-09-20T16:24:08.866Z,69.66
2022-09-20T16:26:35.976Z,69.95
2022-09-20T16:29:04.575Z,72.08
2022-09-20T16:31:47.787Z,71.87
2022-09-20T16:34:19.252Z,71.68
2022-09-20T16:36:46.489Z,71.22
2022-09-20T16:39:13.894Z,71.51
2022-09-20T16:41:43.312Z,72.80
2022-09-20T16:44:09.780Z,73.00
2022-09-20T16:46:38.903Z,73.01
2022-09-20T16:49:13.063Z,73.12
2022-09-20T16:51:40.387Z,72.61
2022-09-20T16:54:09.530Z,73.80
2022-09-20T16:56:35.965Z,73.04
2022-09-20T16:59:03.694Z,73.65
2022-09-20T17:01:31.186Z,74.75
2022-09-20T17:03:57.701Z,74.49
2022-09-20T17:06:24.870Z,76.71
2022-09-20T17:08:56.782Z,77.78
2022-09-20T17:11:26.068Z,78.80
2022-09-20T17:13:53.761Z,78.51
2022-09-20T17:16:21.415Z,78.45
2022-09-20T17:18:54.008Z,78.64
2022-09-20T17:21:21.352Z,78.54
2022-09-20T17:23:51.101Z,77.58
2022-09-20T17:26:19.981Z,76.55
2022-09-20T17:28:47.522Z,78.12
2022-09-20T17:31:15.319Z,76.83
2022-09-20T17:33:42.258Z,77.50
2022-09-20T17:36:12.171Z,77.75
2022-09-20T17:38:39.323Z,76.52
2022-09-20T17:41:10.386Z,76.74
2022-09-20T17:43:37.636Z,75.11
2022-09-20T17:46:25.792Z,75.85
2022-09-20T17:48:54.350Z,75.22
2022-09-20T17:51:21.425Z,75.45
2022-09-20T17:53:47.780Z,74.51
2022-09-20T17:56:14.533Z,74.03
2022-09-20T17:58:41.465Z,74.50
2022-09-20T18:01:12.719Z,73.31
2022-09-20T18:03:40.478Z,73.75
2022-09-20T18:06:10.441Z,73.81
2022-09-20T18:08:36.767Z,73.47
2022-09-20T18:11:03.588Z,74.82
2022-09-20T18:13:31.231Z,74.43
2022-09-20T18:15:57.748Z,74.02
2022-09-20T18:18:24.054Z,74.17
2022-09-20T18:20:50.432Z,73.46
2022-09-20T18:23:17.372Z,72.41
2022-09-20T18:26:02.124Z,74.41
2022-09-20T18:28:28.865Z,74.63
2022-09-20T18:31:02.196Z,75.46
2022-09-20T18:33:29.485Z,74.98
2022-09-20T18:36:03.068Z,74.95
2022-09-20T18:38:29.814Z,75.99
2022-09-20T18:41:00.183Z,76.24
2022-09-20T18:43:30.248Z,76.65
2022-09-20T18:45:57.175Z,77.01
2022-09-20T18:48:24.383Z,77.77
2022-09-20T18:50:57.727Z,77.42
2022-09-20T18:53:37.309Z,77.39
2022-09-20T18:56:18.734Z,78.41
2022-09-20T18:58:45.108Z,77.68
2022-09-20T19:01:11.442Z,77.63
2022-09-20T19:03:58.683Z,76.76
2022-09-20T19:06:29.787Z,76.69
2022-09-20T19:09:02.966Z,76.97
2022-09-20T19:11:39.096Z,75.94
2022-09-20T19:14:28.576Z,74.65
2022-09-20T19:17:00.190Z,73.81
2022-09-20T19:19:45.060Z,74.00
2022-09-20T19:22:29.160Z,73.22
2022-09-20T19:25:01.381Z,73.51
2022-09-20T19:27:28.089Z,73.69
2022-09-20T19:29:54.749Z,74.32
2022-09-20T19:32:24.236Z,76.22
2022-09-20T19:34:51.271Z,76.63
2022-09-20T19:37:20.651Z,77.44
2022-09-20T19:39:53.109Z,77.46
2022-09-20T19:42:37.858Z,77.19
2022-09-20T19:45:14.206Z,77.39
2022-09-20T19:47:58.697Z,77.53
2022-09-20T19:50:34.981Z,77.47
2022-09-20T19:53:04.030Z,76.88
2022-09-20T19:55:31.449Z,77.04
2022-09-20T19:57:58.449Z,76.39
2022-09-20T20:00:25.299Z,76.22
2022-09-20T20:02:52.409Z,76.15
2022-09-20T20:05:20.429Z,77.42
2022-09-20T20:07:56.636Z,76.23
2022-09-20T20:10:25.820Z,77.14
2022-09-20T20:13:03.252Z,76.41
2022-09-20T20:15:42.887Z,76.98
2022-09-20T20:18:16.385Z,77.68
2022-09-20T20:20:46.481Z,77.87
2022-09-20T20:23:12.786Z,78.67
2022-09-20T20:25:48.217Z,78.98
2022-09-20T20:28:14.528Z,78.74
2022-09-20T20:30:40.846Z,79.24
2022-09-20T20:33:07.311Z,78.79
2022-09-20T20:35:34.074Z,79.46
2022-09-20T20:38:00.372Z,79.19
2022-09-20T20:40:28.344Z,79.48
2022-09-20T20:43:01.950Z,79.75
2022-09-20T20:45:28.971Z,80.05
2022-09-20T20:47:58.649Z,81.03
2022-09-20T20:50:26.230Z,81.09
2022-09-20T20:52:53.924Z,81.21
2022-09-20T20:55:20.377Z,80.43
2022-09-20T20:57:57.285Z,80.59
2022-09-20T21:00:24.407Z,80.29
2022-09-20T21:02:58.220Z,81.08
2022-09-20T21:05:24.825Z,80.82
2022-09-20T21:07:52.339Z,81.44
2022-09-20T21:10:18.939Z,80.37
2022-09-20T21:12:45.301Z,80.83
2022-09-20T21:15:11.945Z,81.67
2022-09-20T21:17:38.232Z,81.25
2022-09-20T21:20:04.625Z,80.64
2022-09-20T21:22:32.061Z,81.62
2022-09-20T21:24:58.590Z,82.16
2022-09-20T21:27:26.203Z,80.56
2022-09-20T21:29:52.488Z,81.29
2022-09-20T21:32:19.870Z,80.68
2022-09-20T21:34:46.162Z,80.26
2022-09-20T21:37:12.626Z,78.54
2022-09-20T21:39:38.941Z,78.01
2022-09-20T21:42:07.475Z,77.24
2022-09-20T21:44:33.796Z,75.47
2022-09-20T21:47:00.135Z,73.95
2022-09-20T21:49:26.420Z,73.09
2022-09-20T21:51:53.242Z,72.57
2022-09-20T21:54:19.784Z,71.99
2022-09-20T21:56:46.106Z,72.12
2022-09-20T21:59:12.693Z,71.86
2022-09-20T22:01:40.075Z,71.08
2022-09-20T22:04:08.010Z,70.76
2022-09-20T22:06:36.305Z,70.66
2022-09-20T22:09:04.246Z,71.03
2022-09-20T22:11:32.143Z,70.43
2022-09-20T22:13:59.100Z,70.42
2022-09-20T22:16:27.008Z,70.24
2022-09-20T22:18:53.841Z,69.65
2022-09-20T22:21:24.156Z,69.74
2022-09-20T22:23:51.733Z,70.12
2022-09-20T22:26:19.319Z,70.87
2022-09-20T22:28:45.629Z,71.50
2022-09-20T22:31:13.542Z,71.66
2022-09-20T22:33:41.150Z,72.75
2022-09-20T22:36:08.034Z,73.12
2022-09-20T22:38:34.393Z,74.06
2022-09-20T22:41:00.744Z,73.29
2022-09-20T22:43:27.659Z,74.25
2022-09-20T22:45:54.063Z,73.79
2022-09-20T22:48:20.549Z,72.05
2022-09-20T22:50:46.869Z,72.74
2022-09-20T22:53:13.222Z,72.87
2022-09-20T22:55:39.497Z,72.57
2022-09-20T22:58:05.804Z,72.42
2022-09-20T23:00:32.225Z,71.74
2022-09-20T23:02:58.843Z,71.78
2022-09-20T23:05:26.652Z,71.80
2022-09-20T23:07:52.962Z,72.03
2022-09-20T23:10:19.331Z,73.65
2022-09-20T23:12:49.480Z,73.68
2022-09-20T23:15:15.941Z,72.41
2022-09-20T23:17:42.225Z,72.75
2022-09-20T23:20:09.036Z,72.83
2022-09-20T23:22:35.340Z,72.79
2022-09-20T23:25:01.621Z,74.88
2022-09-20T23:27:27.901Z,76.75
2022-09-20T23:29:54.216Z,75.31
2022-09-20T23:32:20.502Z,74.91
2022-09-20T23:34:46.917Z,75.27
2022-09-20T23:37:13.203Z,77.77
2022-09-20T23:39:40.591Z,77.92
2022-09-20T23:42:06.985Z,77.34
2022-09-20T23:44:33.336Z,76.88
2022-09-20T23:46:59.844Z,77.08
2022-09-20T23:49:26.610Z,76.75
2022-09-20T23:51:52.909Z,77.08
2022-09-20T23:54:19.184Z,75.46
2022-09-20T23:56:46.096Z,74.76
2022-09-20T23:59:12.437Z,73.74
